Norwegian Crown — C6II4 — position and weather

sailwx.info

Track history (hours):
 
Tides and Currents Weather Stations Pressure Air Temp Water Temp Dewpoint Dewpoint Depression Visibility Wind Speed Wind Dir Waves Ship Positions

Norwegian Crown

Operator: Norwegian Cruise Line

Last reported at 2015-May-22 05:11 UTC. Time now 2015-May-23 05:52 UTC.
Position N 41°13' W 011°48'.

Type: Ship. MMSI: 308785000.

Date/timePositionNaut miles runAvg speedWind from/ knotsBaromVisibWave heightAir tempDewpointWater temp
2015-May-22 05:11N 41°13' W 011°48'914.0
2015-May-22 04:33N 41°05' W 011°52'1414.0
2015-May-22 03:33N 40°52' W 011°60'1414.1
2015-May-22 02:33N 40°39' W 012°07'1414.2
2015-May-22 01:33N 40°26' W 012°14'  
2015-May-18 17:23N 33°58' W 019°24'1615.6
2015-May-18 16:21N 34°08' W 019°40'1915.6
2015-May-18 15:08N 34°19' W 019°58'1315.6
2015-May-18 14:19N 34°26' W 020°11'1315.7
2015-May-18 13:28N 34°34' W 020°24'3115.6
2015-May-18 11:30N 34°52' W 020°54'3615.8
2015-May-18 09:13N 35°13' W 021°30'2716.0
2015-May-18 07:33N 35°29' W 021°56'1816.5
2015-May-18 06:27N 35°40' W 022°14'1516.3
2015-May-18 05:33N 35°48' W 022°29'1716.3
2015-May-18 04:31N 35°58' W 022°46'1616.3
2015-May-18 03:33N 36°07' W 023°02'1616.2
2015-May-18 02:33N 36°17' W 023°18'1616.1
2015-May-18 01:33N 36°26' W 023°34'1616.0
2015-May-18 00:33N 36°36' W 023°50'1615.9
2015-May-17 23:33N 36°45' W 024°06'1615.7
2015-May-17 22:33N 36°54' W 024°22'1615.8
2015-May-17 21:33N 37°03' W 024°38'1616.1
2015-May-17 20:34N 37°13' W 024°54'1616.1
2015-May-17 19:33N 37°24' W 025°09'1615.8
2015-May-17 18:33N 37°34' W 025°24'1515.3
2015-May-17 17:33N 37°44' W 025°39'1 0.6
2015-May-17 16:32N 37°44' W 025°40'0 0.0
2015-May-17 15:32N 37°44' W 025°40'0 0.0
2015-May-17 14:32N 37°44' W 025°40'0 0.0
2015-May-17 13:32N 37°44' W 025°40'0 0.0
2015-May-17 12:32N 37°44' W 025°40'0 0.0
2015-May-17 11:32N 37°44' W 025°40'0 0.0
2015-May-17 10:32N 37°44' W 025°40'0 0.0
2015-May-17 09:32N 37°44' W 025°40'0 0.0
2015-May-17 08:29N 37°44' W 025°40'0 0.0
2015-May-17 07:34N 37°44' W 025°40'4 3.7
2015-May-17 06:33N 37°43' W 025°44'1110.9
2015-May-17 05:33N 37°46' W 025°57'1111.1
2015-May-17 04:34N 37°49' W 026°11'1110.9
2015-May-17 03:34N 37°52' W 026°24'1110.7
2015-May-17 02:33N 37°56' W 026°37'1110.8
2015-May-17 01:33N 37°59' W 026°50'1110.8
2015-May-17 00:34N 38°02' W 027°03'1110.7
2015-May-16 23:33N 38°05' W 027°16'1110.6
2015-May-16 22:33N 38°08' W 027°29'1111.0
2015-May-16 21:33N 38°12' W 027°42'1110.7
2015-May-16 20:34N 38°15' W 027°55'1514.5
2015-May-16 19:33N 38°19' W 028°13'1515.3
2015-May-16 18:33N 38°23' W 028°32'10 9.5
2015-May-16 17:31N 38°32' W 028°37'0 0.0
2015-May-16 16:30N 38°32' W 028°37'0 0.0
2015-May-16 15:33N 38°32' W 028°37'0 0.0
2015-May-16 14:33N 38°32' W 028°37'0 0.0
2015-May-16 13:34N 38°32' W 028°37'0 0.0
2015-May-16 12:33N 38°32' W 028°37'0 0.0
2015-May-16 11:33N 38°32' W 028°37'0 0.0
2015-May-16 10:34N 38°32' W 028°37'0 0.0
2015-May-16 09:33N 38°32' W 028°37'0 0.0
2015-May-16 08:33N 38°32' W 028°37'0 0.0
2015-May-16 07:34N 38°32' W 028°37'5 5.0
2015-May-16 06:34N 38°36' W 028°33'1110.7
2015-May-16 05:33N 38°45' W 028°27'9 8.7
2015-May-16 04:34N 38°49' W 028°17'10 9.7
2015-May-16 03:33N 38°49' W 028°04'1010.1
2015-May-16 02:33N 38°50' W 027°51'1110.5
2015-May-16 01:33N 38°54' W 027°39'1111.2
2015-May-16 00:33N 39°01' W 027°27'1010.4
2015-May-15 23:33N 39°02' W 027°14'9 9.3
2015-May-15 22:33N 38°57' W 027°04'1212.0
2015-May-15 21:33N 38°45' W 026°59'4 3.8
2015-May-15 20:31N 38°43' W 027°03'0 0.0
2015-May-15 19:31N 38°43' W 027°03'0 0.0
2015-May-15 18:31N 38°43' W 027°03'0 0.0
2015-May-15 17:31N 38°43' W 027°03'0 0.0
2015-May-15 16:31N 38°43' W 027°03'0 0.0
2015-May-15 15:31N 38°43' W 027°03'0 0.0
2015-May-15 14:31N 38°43' W 027°03'0 0.0
2015-May-15 13:25N 38°43' W 027°03'0 0.0
2015-May-15 12:31N 38°43' W 027°03'0 0.0
2015-May-15 11:31N 38°43' W 027°03'0 0.0
2015-May-15 10:31N 38°43' W 027°03'0 0.0
2015-May-15 09:31N 38°43' W 027°03'0 0.5
2015-May-15 08:33N 38°43' W 027°03'1212.5
2015-May-15 07:33N 38°50' W 026°49'1716.6
2015-May-15 06:33N 38°59' W 026°32'1616.5
2015-May-15 05:33N 39°09' W 026°14'1716.4
2015-May-15 04:32N 39°18' W 025°56'1616.7
2015-May-15 03:33N 39°27' W 025°39'1816.6
2015-May-15 02:29N 39°37' W 025°20'1516.4
2015-May-15 01:33N 39°46' W 025°03'2316.4
2015-May-15 00:09N 39°59' W 024°39'1316.3
2015-May-14 23:22N 40°06' W 024°25'1916.0
2015-May-14 22:10N 40°17' W 024°04'1016.2
2015-May-14 21:33N 40°22' W 023°54'  
Track history (hours):
 
Tides and Currents Weather Stations Pressure Air Temp Water Temp Dewpoint Dewpoint Depression Visibility Wind Speed Wind Dir Waves Ship Positions

Norwegian Crown

Operator: Norwegian Cruise Line

Last reported at 2015-May-22 05:11 UTC. Time now 2015-May-23 05:52 UTC.
Position N 41°13' W 011°48'.

Type: Ship. MMSI: 308785000.

Date/timePositionNaut miles runAvg speedWind from/ knotsBaromVisibWave heightAir tempDewpointWater temp
2015-May-22 05:11N 41°13' W 011°48'914.0
2015-May-22 04:33N 41°05' W 011°52'1414.0
2015-May-22 03:33N 40°52' W 011°60'1414.1
2015-May-22 02:33N 40°39' W 012°07'1414.2
2015-May-22 01:33N 40°26' W 012°14'  
2015-May-18 17:23N 33°58' W 019°24'1615.6
2015-May-18 16:21N 34°08' W 019°40'1915.6
2015-May-18 15:08N 34°19' W 019°58'1315.6
2015-May-18 14:19N 34°26' W 020°11'1315.7
2015-May-18 13:28N 34°34' W 020°24'3115.6
2015-May-18 11:30N 34°52' W 020°54'3615.8
2015-May-18 09:13N 35°13' W 021°30'2716.0
2015-May-18 07:33N 35°29' W 021°56'1816.5
2015-May-18 06:27N 35°40' W 022°14'1516.3
2015-May-18 05:33N 35°48' W 022°29'1716.3
2015-May-18 04:31N 35°58' W 022°46'1616.3
2015-May-18 03:33N 36°07' W 023°02'1616.2
2015-May-18 02:33N 36°17' W 023°18'1616.1
2015-May-18 01:33N 36°26' W 023°34'1616.0
2015-May-18 00:33N 36°36' W 023°50'1615.9
2015-May-17 23:33N 36°45' W 024°06'1615.7
2015-May-17 22:33N 36°54' W 024°22'1615.8
2015-May-17 21:33N 37°03' W 024°38'1616.1
2015-May-17 20:34N 37°13' W 024°54'1616.1
2015-May-17 19:33N 37°24' W 025°09'1615.8
2015-May-17 18:33N 37°34' W 025°24'1515.3
2015-May-17 17:33N 37°44' W 025°39'1 0.6
2015-May-17 16:32N 37°44' W 025°40'0 0.0
2015-May-17 15:32N 37°44' W 025°40'0 0.0
2015-May-17 14:32N 37°44' W 025°40'0 0.0
2015-May-17 13:32N 37°44' W 025°40'0 0.0
2015-May-17 12:32N 37°44' W 025°40'0 0.0
2015-May-17 11:32N 37°44' W 025°40'0 0.0
2015-May-17 10:32N 37°44' W 025°40'0 0.0
2015-May-17 09:32N 37°44' W 025°40'0 0.0
2015-May-17 08:29N 37°44' W 025°40'0 0.0
2015-May-17 07:34N 37°44' W 025°40'4 3.7
2015-May-17 06:33N 37°43' W 025°44'1110.9
2015-May-17 05:33N 37°46' W 025°57'1111.1
2015-May-17 04:34N 37°49' W 026°11'1110.9
2015-May-17 03:34N 37°52' W 026°24'1110.7
2015-May-17 02:33N 37°56' W 026°37'1110.8
2015-May-17 01:33N 37°59' W 026°50'1110.8
2015-May-17 00:34N 38°02' W 027°03'1110.7
2015-May-16 23:33N 38°05' W 027°16'1110.6
2015-May-16 22:33N 38°08' W 027°29'1111.0
2015-May-16 21:33N 38°12' W 027°42'1110.7
2015-May-16 20:34N 38°15' W 027°55'1514.5
2015-May-16 19:33N 38°19' W 028°13'1515.3
2015-May-16 18:33N 38°23' W 028°32'10 9.5
2015-May-16 17:31N 38°32' W 028°37'0 0.0
2015-May-16 16:30N 38°32' W 028°37'0 0.0
2015-May-16 15:33N 38°32' W 028°37'0 0.0
2015-May-16 14:33N 38°32' W 028°37'0 0.0
2015-May-16 13:34N 38°32' W 028°37'0 0.0
2015-May-16 12:33N 38°32' W 028°37'0 0.0
2015-May-16 11:33N 38°32' W 028°37'0 0.0
2015-May-16 10:34N 38°32' W 028°37'0 0.0
2015-May-16 09:33N 38°32' W 028°37'0 0.0
2015-May-16 08:33N 38°32' W 028°37'0 0.0
2015-May-16 07:34N 38°32' W 028°37'5 5.0
2015-May-16 06:34N 38°36' W 028°33'1110.7
2015-May-16 05:33N 38°45' W 028°27'9 8.7
2015-May-16 04:34N 38°49' W 028°17'10 9.7
2015-May-16 03:33N 38°49' W 028°04'1010.1
2015-May-16 02:33N 38°50' W 027°51'1110.5
2015-May-16 01:33N 38°54' W 027°39'1111.2
2015-May-16 00:33N 39°01' W 027°27'1010.4
2015-May-15 23:33N 39°02' W 027°14'9 9.3
2015-May-15 22:33N 38°57' W 027°04'1212.0
2015-May-15 21:33N 38°45' W 026°59'4 3.8
2015-May-15 20:31N 38°43' W 027°03'0 0.0
2015-May-15 19:31N 38°43' W 027°03'0 0.0
2015-May-15 18:31N 38°43' W 027°03'0 0.0
2015-May-15 17:31N 38°43' W 027°03'0 0.0
2015-May-15 16:31N 38°43' W 027°03'0 0.0
2015-May-15 15:31N 38°43' W 027°03'0 0.0
2015-May-15 14:31N 38°43' W 027°03'0 0.0
2015-May-15 13:25N 38°43' W 027°03'0 0.0
2015-May-15 12:31N 38°43' W 027°03'0 0.0
2015-May-15 11:31N 38°43' W 027°03'0 0.0
2015-May-15 10:31N 38°43' W 027°03'0 0.0
2015-May-15 09:31N 38°43' W 027°03'0 0.5
2015-May-15 08:33N 38°43' W 027°03'1212.5
2015-May-15 07:33N 38°50' W 026°49'1716.6
2015-May-15 06:33N 38°59' W 026°32'1616.5
2015-May-15 05:33N 39°09' W 026°14'1716.4
2015-May-15 04:32N 39°18' W 025°56'1616.7
2015-May-15 03:33N 39°27' W 025°39'1816.6
2015-May-15 02:29N 39°37' W 025°20'1516.4
2015-May-15 01:33N 39°46' W 025°03'2316.4
2015-May-15 00:09N 39°59' W 024°39'1316.3
2015-May-14 23:22N 40°06' W 024°25'1916.0
2015-May-14 22:10N 40°17' W 024°04'1016.2
2015-May-14 21:33N 40°22' W 023°54'  

Dump ship's entire track history